Time;durP1;ratioP1;P1;durP2;ratioP2;P2;SDS_P1;SDS_P2;PMS_P1;PMS_P2;Temp;Humidity;BMP_temperature;BMP_pressure;BME280_temperature;BME280_humidity;BME280_pressure;Samples;Min_cycle;Max_cycle;Signal;HPM_P1;HPM_P2
2023/12/26 00:01:24;;;;;;;2.07;1.73;;;11.40;99.90;;;;;;5115190;28;20201;-70
2023/12/26 00:03:51;;;;;;;2.00;1.50;;;11.30;99.90;;;;;;5115445;28;20634;-70
2023/12/26 00:06:22;;;;;;;2.50;1.40;;;11.30;99.90;;;;;;5115365;28;20167;-69
2023/12/26 00:08:49;;;;;;;2.63;1.70;;;11.20;99.90;;;;;;5115260;28;20163;-71
2023/12/26 00:11:15;;;;;;;2.47;1.60;;;11.20;99.90;;;;;;5115060;28;20209;-70
2023/12/26 00:13:41;;;;;;;3.63;1.80;;;11.20;99.90;;;;;;5115037;28;20196;-70
2023/12/26 00:16:07;;;;;;;5.07;1.90;;;11.10;99.90;;;;;;5114988;28;20219;-71
2023/12/26 00:18:32;;;;;;;4.17;1.70;;;11.10;99.90;;;;;;5114621;28;20203;-71
2023/12/26 00:20:58;;;;;;;5.27;2.00;;;11.10;99.90;;;;;;5115016;28;20167;-70
2023/12/26 00:23:24;;;;;;;3.00;2.00;;;11.10;99.90;;;;;;5114897;28;20213;-70
2023/12/26 00:25:49;;;;;;;3.10;1.80;;;11.10;99.90;;;;;;5096601;28;20174;-70
2023/12/26 00:28:17;;;;;;;8.20;1.93;;;11.00;99.90;;;;;;5114528;28;20243;-70
2023/12/26 00:30:43;;;;;;;3.87;1.70;;;11.00;99.90;;;;;;5114644;28;20159;-70
2023/12/26 00:33:08;;;;;;;3.27;1.90;;;11.00;99.90;;;;;;5114554;28;20182;-69
2023/12/26 00:35:34;;;;;;;3.37;1.87;;;11.00;99.90;;;;;;5114478;28;20171;-69
2023/12/26 00:38:01;;;;;;;3.10;1.93;;;11.00;99.90;;;;;;5114667;28;20194;-71
2023/12/26 00:40:27;;;;;;;1.87;1.70;;;11.00;99.90;;;;;;5114573;28;20170;-70
2023/12/26 00:42:52;;;;;;;3.80;1.93;;;11.00;99.90;;;;;;5114383;28;20167;-69
2023/12/26 00:45:22;;;;;;;4.50;2.10;;;11.00;99.90;;;;;;5114550;28;20174;-70
2023/12/26 00:47:50;;;;;;;4.80;2.30;;;11.00;99.90;;;;;;5114219;28;20185;-70
2023/12/26 00:50:16;;;;;;;3.63;1.93;;;11.00;99.90;;;;;;5114522;28;20175;-69
2023/12/26 00:52:43;;;;;;;6.03;1.83;;;11.10;99.90;;;;;;5113683;28;20549;-69
2023/12/26 00:55:08;;;;;;;4.83;1.80;;;11.10;99.90;;;;;;5114419;28;20183;-70
2023/12/26 00:57:35;;;;;;;2.50;1.77;;;11.10;99.90;;;;;;5114141;28;20239;-69
2023/12/26 01:00:04;;;;;;;3.40;2.00;;;11.10;99.90;;;;;;5114167;28;20183;-69
2023/12/26 01:02:30;;;;;;;3.03;1.80;;;11.10;99.90;;;;;;5113918;28;20174;-70
2023/12/26 01:04:56;;;;;;;5.57;1.90;;;11.10;99.90;;;;;;5114228;28;20167;-69
2023/12/26 01:07:21;;;;;;;5.10;2.00;;;11.10;99.90;;;;;;5095904;28;20520;-70
2023/12/26 01:09:47;;;;;;;3.17;1.93;;;11.10;99.90;;;;;;5095871;28;20178;-70
2023/12/26 01:12:14;;;;;;;4.50;1.90;;;11.10;99.90;;;;;;5113757;28;20333;-69
2023/12/26 01:14:40;;;;;;;7.10;2.17;;;11.10;99.90;;;;;;5114270;28;20190;-70
2023/12/26 01:17:06;;;;;;;3.20;2.03;;;11.10;99.90;;;;;;5113759;28;20175;-71
2023/12/26 01:19:31;;;;;;;7.00;3.20;;;11.20;99.90;;;;;;5113846;28;20297;-69
2023/12/26 01:21:57;;;;;;;5.13;2.90;;;11.20;99.90;;;;;;5114003;28;20174;-70
2023/12/26 01:24:23;;;;;;;9.10;2.53;;;11.10;99.90;;;;;;5114013;28;20194;-70
2023/12/26 01:26:48;;;;;;;4.27;2.30;;;11.10;99.90;;;;;;5113686;28;20191;-69
2023/12/26 01:29:14;;;;;;;5.83;2.87;;;11.00;99.90;;;;;;5113516;28;20225;-70
2023/12/26 01:31:39;;;;;;;8.57;3.10;;;11.00;99.90;;;;;;5113540;28;20163;-70
2023/12/26 01:34:06;;;;;;;7.73;2.70;;;11.00;99.90;;;;;;5095326;28;20588;-69
2023/12/26 01:36:32;;;;;;;8.10;2.40;;;11.00;99.90;;;;;;5113637;28;20729;-70
2023/12/26 01:38:58;;;;;;;6.03;2.70;;;11.00;99.90;;;;;;5113681;28;20264;-69
2023/12/26 01:41:23;;;;;;;5.97;2.43;;;10.90;99.90;;;;;;5113746;28;20642;-70
2023/12/26 01:43:49;;;;;;;4.07;3.20;;;10.90;99.90;;;;;;5095243;28;20171;-71
2023/12/26 01:46:16;;;;;;;7.83;2.57;;;10.90;99.90;;;;;;5113574;28;20167;-71
2023/12/26 01:48:45;;;;;;;6.27;2.47;;;10.90;99.90;;;;;;5113644;28;20194;-70
2023/12/26 01:51:13;;;;;;;4.60;2.63;;;10.80;99.90;;;;;;5113584;28;20250;-71
2023/12/26 01:53:39;;;;;;;5.57;2.30;;;10.90;99.90;;;;;;5113765;28;20231;-71
2023/12/26 01:56:08;;;;;;;9.37;2.80;;;10.80;99.90;;;;;;5113545;28;20183;-71
2023/12/26 01:58:37;;;;;;;4.00;2.30;;;10.80;99.90;;;;;;5113506;28;20689;-70
2023/12/26 02:01:04;;;;;;;7.90;2.53;;;10.80;99.90;;;;;;5113437;28;20171;-70
2023/12/26 02:03:30;;;;;;;6.33;2.77;;;10.80;99.90;;;;;;5115796;28;20179;-70
2023/12/26 02:05:58;;;;;;;10.37;3.00;;;10.80;99.90;;;;;;5117845;28;20176;-70
2023/12/26 02:08:24;;;;;;;5.77;2.47;;;10.80;99.90;;;;;;5117630;28;20255;-70
2023/12/26 02:10:49;;;;;;;7.30;2.67;;;10.80;99.90;;;;;;5117403;28;20229;-70
2023/12/26 02:13:15;;;;;;;5.83;2.57;;;10.80;99.90;;;;;;5117484;28;20202;-70
2023/12/26 02:15:41;;;;;;;6.90;2.50;;;10.80;99.90;;;;;;5117044;28;20176;-70
2023/12/26 02:18:08;;;;;;;4.77;2.50;;;10.80;99.90;;;;;;5117144;28;20199;-70
2023/12/26 02:20:33;;;;;;;4.47;2.60;;;10.80;99.90;;;;;;5117433;28;20182;-70
2023/12/26 02:22:59;;;;;;;4.37;2.10;;;10.70;99.90;;;;;;5117468;28;20167;-70
2023/12/26 02:25:24;;;;;;;9.13;2.47;;;10.70;99.90;;;;;;5117114;28;20177;-70
2023/12/26 02:27:51;;;;;;;5.90;2.47;;;10.70;99.90;;;;;;5116982;28;20227;-70
2023/12/26 02:30:18;;;;;;;7.33;2.90;;;10.70;99.90;;;;;;5116800;28;20190;-71
2023/12/26 02:32:46;;;;;;;6.00;2.83;;;10.70;99.90;;;;;;5117341;28;20176;-70
2023/12/26 02:35:12;;;;;;;3.30;2.97;;;10.60;99.90;;;;;;5117009;28;20208;-71
2023/12/26 02:37:38;;;;;;;7.20;2.93;;;10.70;99.90;;;;;;5116789;28;20202;-70
2023/12/26 02:40:04;;;;;;;6.37;3.03;;;10.70;99.90;;;;;;5117004;28;20213;-71
2023/12/26 02:42:30;;;;;;;7.30;2.60;;;10.70;99.90;;;;;;5117108;28;20163;-69
2023/12/26 02:44:56;;;;;;;5.33;3.00;;;10.60;99.90;;;;;;5116534;28;20254;-70
2023/12/26 02:47:23;;;;;;;5.50;3.00;;;10.60;99.90;;;;;;5117118;28;20217;-71
2023/12/26 02:49:48;;;;;;;8.73;3.33;;;10.60;99.90;;;;;;5116868;28;20172;-71
2023/12/26 02:52:14;;;;;;;7.13;2.90;;;10.60;99.90;;;;;;5116850;28;20673;-70
2023/12/26 02:54:40;;;;;;;8.30;3.20;;;10.60;99.90;;;;;;5116776;28;20262;-70
2023/12/26 02:57:05;;;;;;;6.90;3.13;;;10.60;99.90;;;;;;5116672;28;20179;-70
2023/12/26 02:59:31;;;;;;;8.63;3.23;;;10.70;99.90;;;;;;5116192;28;20725;-70
2023/12/26 03:01:58;;;;;;;12.27;3.20;;;10.70;99.90;;;;;;5116572;28;20172;-71
2023/12/26 03:04:23;;;;;;;8.57;3.20;;;10.60;99.90;;;;;;5116762;28;20211;-70
2023/12/26 03:06:49;;;;;;;9.33;3.30;;;10.70;99.90;;;;;;5116481;28;20197;-70
2023/12/26 03:09:15;;;;;;;8.20;3.30;;;10.70;99.90;;;;;;5116361;28;20625;-70
2023/12/26 03:11:40;;;;;;;6.83;2.90;;;10.70;99.90;;;;;;5116407;28;20190;-69
2023/12/26 03:14:06;;;;;;;7.37;3.10;;;10.70;99.90;;;;;;5115437;28;20199;-69
2023/12/26 03:16:32;;;;;;;6.50;3.00;;;10.70;99.90;;;;;;5115819;28;20183;-70
2023/12/26 03:18:57;;;;;;;8.57;3.23;;;10.70;99.90;;;;;;5116167;28;20238;-70
2023/12/26 03:21:23;;;;;;;7.67;3.27;;;10.70;99.90;;;;;;5116098;28;20195;-69
2023/12/26 03:23:50;;;;;;;5.10;3.10;;;10.70;99.90;;;;;;5116306;28;20167;-70
2023/12/26 03:26:16;;;;;;;5.63;2.53;;;10.70;99.90;;;;;;5116167;28;20167;-69
2023/12/26 03:28:41;;;;;;;5.80;2.70;;;10.80;99.90;;;;;;5115492;28;20757;-70
2023/12/26 03:31:07;;;;;;;5.03;2.30;;;10.80;99.90;;;;;;5116074;28;20740;-70
2023/12/26 03:33:32;;;;;;;5.57;2.60;;;10.80;99.90;;;;;;5115942;28;20182;-70
2023/12/26 03:35:58;;;;;;;5.30;2.40;;;10.80;99.90;;;;;;5116039;28;20646;-70
2023/12/26 03:38:23;;;;;;;6.77;2.70;;;10.80;99.90;;;;;;5116012;28;20673;-70
2023/12/26 03:40:49;;;;;;;4.67;2.37;;;10.90;99.90;;;;;;5115598;28;20171;-70
2023/12/26 03:43:16;;;;;;;2.60;2.40;;;10.90;99.90;;;;;;5097202;28;20507;-70
2023/12/26 03:45:42;;;;;;;6.83;2.43;;;10.90;99.90;;;;;;5115665;28;20171;-70
2023/12/26 03:48:08;;;;;;;5.13;2.77;;;10.80;99.90;;;;;;5115617;28;20250;-70
2023/12/26 03:50:33;;;;;;;7.73;2.93;;;10.90;99.90;;;;;;5115675;28;20263;-69
2023/12/26 03:52:59;;;;;;;7.27;2.40;;;10.90;99.90;;;;;;5115621;28;20638;-69
2023/12/26 03:55:24;;;;;;;3.87;2.33;;;10.90;99.90;;;;;;5115531;28;20170;-70
2023/12/26 03:57:50;;;;;;;4.53;2.57;;;10.90;99.90;;;;;;5115053;28;20221;-70
2023/12/26 04:00:16;;;;;;;5.87;3.13;;;10.80;99.90;;;;;;5115384;28;20274;-70
2023/12/26 04:02:41;;;;;;;3.20;2.20;;;10.90;99.90;;;;;;5115289;28;20193;-69
2023/12/26 04:05:08;;;;;;;5.63;2.53;;;10.90;99.90;;;;;;5115021;28;20216;-70
2023/12/26 04:07:35;;;;;;;5.10;2.30;;;10.90;99.90;;;;;;5115497;28;20187;-70
2023/12/26 04:10:00;;;;;;;4.53;2.40;;;10.80;99.90;;;;;;5115348;28;20201;-70
2023/12/26 04:12:26;;;;;;;3.23;2.10;;;10.70;99.90;;;;;;5096573;28;20195;-70
2023/12/26 04:14:52;;;;;;;4.80;2.07;;;10.80;99.90;;;;;;5115027;28;20175;-70
2023/12/26 04:17:17;;;;;;;3.33;2.07;;;10.80;99.90;;;;;;5114784;28;20177;-70
2023/12/26 04:19:43;;;;;;;2.27;2.07;;;10.80;99.90;;;;;;5114383;28;20203;-71
2023/12/26 04:22:11;;;;;;;4.87;2.20;;;10.80;99.90;;;;;;5115006;28;20312;-70
2023/12/26 04:24:37;;;;;;;3.10;2.03;;;10.80;99.90;;;;;;5114835;28;20254;-70
2023/12/26 04:27:03;;;;;;;3.73;2.43;;;10.80;99.90;;;;;;5114257;28;20246;-70
2023/12/26 04:29:28;;;;;;;5.03;2.30;;;10.90;99.90;;;;;;5114422;28;20186;-69
2023/12/26 04:31:54;;;;;;;3.97;2.70;;;10.90;99.90;;;;;;5114695;28;20576;-70
2023/12/26 04:34:20;;;;;;;6.73;2.77;;;10.90;99.90;;;;;;5114285;28;20202;-71
2023/12/26 04:36:45;;;;;;;3.83;3.33;;;10.90;99.90;;;;;;5114096;28;20259;-70
2023/12/26 04:39:11;;;;;;;3.83;3.27;;;10.90;99.90;;;;;;5114400;28;20559;-70
2023/12/26 04:41:36;;;;;;;5.53;3.47;;;10.90;99.90;;;;;;5095856;28;20175;-70
2023/12/26 04:44:02;;;;;;;8.70;3.90;;;10.90;99.90;;;;;;5114465;28;20175;-69
2023/12/26 04:46:28;;;;;;;6.90;3.83;;;10.90;99.90;;;;;;5114099;28;20202;-70
2023/12/26 04:48:53;;;;;;;8.83;4.47;;;10.90;99.90;;;;;;5114030;28;20163;-70
2023/12/26 04:51:19;;;;;;;8.30;4.23;;;10.90;99.90;;;;;;5114258;28;20214;-70
2023/12/26 04:53:51;;;;;;;9.53;4.80;;;10.90;99.90;;;;;;5095474;28;20655;-70
2023/12/26 04:56:17;;;;;;;10.13;4.30;;;10.90;99.90;;;;;;5113292;28;20204;-70
2023/12/26 04:58:48;;;;;;;7.87;4.70;;;10.90;99.90;;;;;;5113394;28;20199;-70
2023/12/26 05:01:15;;;;;;;6.80;4.70;;;10.90;99.90;;;;;;5114365;28;20246;-70
2023/12/26 05:03:40;;;;;;;12.30;4.37;;;10.90;99.90;;;;;;5095515;28;20223;-69
2023/12/26 05:06:06;;;;;;;9.40;4.80;;;11.00;99.90;;;;;;5114390;28;21249;-70
2023/12/26 05:08:32;;;;;;;7.33;4.53;;;11.00;99.90;;;;;;5113746;28;20182;-71
2023/12/26 05:10:57;;;;;;;7.93;4.50;;;11.00;99.90;;;;;;5113583;28;20178;-71
2023/12/26 05:13:23;;;;;;;11.53;5.13;;;11.00;99.90;;;;;;5113528;28;20638;-71
2023/12/26 05:15:51;;;;;;;7.57;4.87;;;11.00;99.90;;;;;;5113557;28;20164;-70
2023/12/26 05:18:17;;;;;;;9.50;4.80;;;11.10;99.90;;;;;;5113200;28;20229;-70
2023/12/26 05:20:43;;;;;;;10.87;4.90;;;11.10;99.90;;;;;;5113777;28;20175;-69
2023/12/26 05:23:08;;;;;;;7.73;4.30;;;11.10;99.90;;;;;;5113224;28;20223;-70
2023/12/26 05:25:34;;;;;;;14.23;4.57;;;11.10;99.90;;;;;;5113659;28;20186;-70
2023/12/26 05:27:59;;;;;;;6.30;4.60;;;11.10;99.90;;;;;;5113152;28;20323;-71
2023/12/26 05:30:25;;;;;;;8.33;4.47;;;11.20;99.90;;;;;;5113268;28;20168;-70
2023/12/26 05:32:51;;;;;;;8.90;4.17;;;11.20;99.90;;;;;;5113160;28;20175;-71
2023/12/26 05:35:17;;;;;;;7.80;4.40;;;11.10;99.90;;;;;;5112798;28;20221;-70
2023/12/26 05:37:45;;;;;;;7.70;4.10;;;11.20;99.90;;;;;;5112293;28;20189;-70
2023/12/26 05:40:10;;;;;;;9.73;4.03;;;11.20;99.90;;;;;;5095421;28;20205;-70
2023/12/26 05:42:36;;;;;;;6.57;3.63;;;11.20;99.90;;;;;;5113386;28;20163;-70
2023/12/26 05:45:03;;;;;;;5.97;3.70;;;11.20;99.90;;;;;;5112694;28;20649;-69
2023/12/26 05:47:29;;;;;;;5.77;3.17;;;11.20;99.90;;;;;;5112676;28;20199;-69
2023/12/26 05:49:57;;;;;;;6.73;3.40;;;11.20;99.90;;;;;;5112701;28;20564;-70
2023/12/26 05:52:23;;;;;;;7.77;4.27;;;11.20;99.90;;;;;;5112306;28;20175;-70
2023/12/26 05:54:49;;;;;;;6.80;3.90;;;11.30;99.90;;;;;;5113040;28;20160;-69
2023/12/26 05:57:15;;;;;;;6.67;3.33;;;11.30;99.90;;;;;;5113168;28;20630;-69
2023/12/26 05:59:40;;;;;;;8.50;3.47;;;11.20;99.90;;;;;;5113092;28;20294;-70
2023/12/26 06:02:06;;;;;;;8.10;3.37;;;11.10;99.90;;;;;;5112991;28;20175;-70
2023/12/26 06:04:31;;;;;;;7.47;2.70;;;11.10;99.90;;;;;;5113437;28;20595;-70
2023/12/26 06:06:57;;;;;;;7.40;2.33;;;11.10;99.90;;;;;;5112920;28;20689;-70
2023/12/26 06:09:23;;;;;;;5.00;2.40;;;11.20;99.90;;;;;;5112938;28;20159;-70
2023/12/26 06:11:48;;;;;;;7.10;2.80;;;11.20;99.90;;;;;;5112459;28;20190;-70
2023/12/26 06:14:14;;;;;;;8.47;2.77;;;11.20;99.90;;;;;;5112727;28;20254;-70
2023/12/26 06:16:39;;;;;;;4.47;2.60;;;11.20;99.90;;;;;;5112912;28;20609;-70
2023/12/26 06:19:05;;;;;;;5.77;2.70;;;11.20;99.90;;;;;;5112759;28;20206;-70
2023/12/26 06:21:31;;;;;;;6.63;2.50;;;11.20;99.90;;;;;;5111954;28;20521;-70
2023/12/26 06:23:56;;;;;;;4.83;2.37;;;11.20;99.90;;;;;;5112438;28;20179;-69
2023/12/26 06:26:23;;;;;;;6.23;2.80;;;11.10;99.90;;;;;;5112920;28;20174;-69
2023/12/26 06:28:48;;;;;;;8.13;3.20;;;11.10;99.90;;;;;;5112515;28;20746;-70
2023/12/26 06:31:14;;;;;;;8.07;2.93;;;11.10;99.90;;;;;;5094266;28;20270;-69
2023/12/26 06:33:40;;;;;;;4.13;2.90;;;11.10;99.90;;;;;;5112189;28;20236;-69
2023/12/26 06:36:06;;;;;;;7.50;3.00;;;11.10;99.90;;;;;;5112717;28;20171;-70
2023/12/26 06:38:32;;;;;;;8.73;2.93;;;11.10;99.90;;;;;;5112257;28;20196;-69
2023/12/26 06:40:57;;;;;;;7.07;2.90;;;11.10;99.90;;;;;;5112378;28;20164;-70
2023/12/26 06:43:23;;;;;;;8.03;3.00;;;11.10;99.90;;;;;;5112606;28;20262;-69
2023/12/26 06:45:49;;;;;;;10.40;3.70;;;11.20;99.90;;;;;;5112313;28;20175;-70
2023/12/26 06:48:14;;;;;;;6.97;2.97;;;11.20;99.90;;;;;;5112469;28;20182;-69
2023/12/26 06:50:40;;;;;;;3.33;2.23;;;11.20;99.90;;;;;;5113744;28;20171;-70
2023/12/26 06:53:05;;;;;;;6.73;2.47;;;11.10;99.90;;;;;;5116286;28;20244;-70
2023/12/26 06:55:31;;;;;;;5.90;2.40;;;11.10;99.90;;;;;;5115258;28;20171;-69
2023/12/26 06:57:57;;;;;;;7.23;2.83;;;11.10;99.90;;;;;;5115066;28;20198;-69
2023/12/26 07:00:22;;;;;;;6.90;2.40;;;11.10;99.90;;;;;;5116098;28;20259;-70
2023/12/26 07:02:48;;;;;;;6.37;2.00;;;11.10;99.90;;;;;;5097267;28;20205;-70
2023/12/26 07:05:13;;;;;;;8.57;2.20;;;11.10;99.90;;;;;;5115237;28;20171;-70
2023/12/26 07:07:39;;;;;;;7.47;2.30;;;11.10;99.90;;;;;;5116322;28;20203;-70
2023/12/26 07:10:05;;;;;;;11.20;2.40;;;11.00;99.90;;;;;;5115687;28;20598;-70
2023/12/26 07:12:30;;;;;;;9.27;2.53;;;11.00;99.90;;;;;;5115032;28;20194;-70
2023/12/26 07:14:56;;;;;;;5.70;2.00;;;11.00;99.90;;;;;;5115039;28;20641;-70
2023/12/26 07:17:21;;;;;;;7.47;1.67;;;11.00;99.90;;;;;;5097493;28;20167;-69
2023/12/26 07:19:47;;;;;;;6.80;2.10;;;10.90;99.90;;;;;;5114929;28;20215;-69
2023/12/26 07:22:13;;;;;;;7.80;1.60;;;10.90;99.90;;;;;;5115563;28;20489;-70
2023/12/26 07:24:38;;;;;;;8.43;2.20;;;10.80;99.90;;;;;;5115753;28;20194;-70
2023/12/26 07:27:04;;;;;;;8.03;1.57;;;10.80;99.90;;;;;;5115299;28;20532;-70
2023/12/26 07:29:29;;;;;;;10.70;2.10;;;10.70;99.90;;;;;;5096918;28;20175;-71
2023/12/26 07:31:55;;;;;;;5.63;1.80;;;10.70;99.90;;;;;;5115421;28;20169;-71
2023/12/26 07:34:21;;;;;;;9.53;1.90;;;10.60;99.90;;;;;;5115144;28;20180;-71
2023/12/26 07:36:46;;;;;;;8.67;1.77;;;10.60;99.90;;;;;;5115320;28;20626;-71
2023/12/26 07:39:12;;;;;;;8.47;1.77;;;10.60;99.90;;;;;;5115064;28;20199;-71
2023/12/26 07:41:37;;;;;;;6.97;1.80;;;10.50;99.90;;;;;;5096631;28;20167;-72
2023/12/26 07:44:03;;;;;;;8.33;1.67;;;10.50;99.90;;;;;;5115448;28;20175;-71
2023/12/26 07:46:29;;;;;;;5.63;1.47;;;10.40;99.90;;;;;;5115066;28;20189;-73
2023/12/26 07:48:54;;;;;;;9.03;2.07;;;10.40;99.90;;;;;;5095945;28;20526;-72
2023/12/26 07:51:20;;;;;;;7.70;1.90;;;10.40;99.90;;;;;;5115230;28;20243;-71
2023/12/26 07:53:47;;;;;;;7.73;1.93;;;10.40;99.90;;;;;;5115123;28;20171;-71
2023/12/26 07:56:13;;;;;;;9.20;1.70;;;10.40;99.90;;;;;;5114513;28;20174;-71
2023/12/26 07:58:38;;;;;;;8.13;1.93;;;10.30;99.90;;;;;;5114077;28;20195;-71
2023/12/26 08:01:04;;;;;;;4.60;1.77;;;10.30;99.90;;;;;;5114747;28;20255;-71
2023/12/26 08:03:30;;;;;;;6.57;1.90;;;10.30;99.90;;;;;;5114304;28;20175;-70
2023/12/26 08:05:56;;;;;;;4.77;1.57;;;10.20;99.90;;;;;;5114519;28;20173;-72
2023/12/26 08:08:22;;;;;;;8.20;1.83;;;10.20;99.90;;;;;;5114426;28;20195;-71
2023/12/26 08:10:48;;;;;;;7.70;2.10;;;10.20;99.90;;;;;;5114290;28;20167;-71
2023/12/26 08:13:14;;;;;;;6.40;1.77;;;10.20;99.90;;;;;;5113377;28;20191;-70
2023/12/26 08:15:39;;;;;;;5.07;1.40;;;10.20;99.90;;;;;;5114483;28;20242;-71
2023/12/26 08:18:05;;;;;;;6.80;2.37;;;10.20;99.90;;;;;;5113931;28;20191;-71
2023/12/26 08:20:33;;;;;;;9.37;2.30;;;10.20;99.90;;;;;;5114157;28;20621;-71
2023/12/26 08:22:59;;;;;;;10.07;2.10;;;10.10;99.90;;;;;;5113970;28;20167;-72
2023/12/26 08:25:25;;;;;;;7.87;2.07;;;10.10;99.90;;;;;;5114601;28;20171;-72
2023/12/26 08:27:50;;;;;;;5.87;1.80;;;10.10;99.90;;;;;;5113919;28;20215;-72
2023/12/26 08:30:16;;;;;;;9.10;1.90;;;10.20;99.90;;;;;;5114106;28;20167;-72
2023/12/26 08:32:42;;;;;;;6.97;1.80;;;10.20;99.90;;;;;;5113605;28;20159;-72
2023/12/26 08:35:08;;;;;;;9.47;2.00;;;10.20;99.90;;;;;;5113926;28;20170;-72
2023/12/26 08:37:33;;;;;;;8.20;2.37;;;10.20;99.90;;;;;;5113768;28;20208;-73
2023/12/26 08:39:59;;;;;;;6.70;1.77;;;10.20;99.90;;;;;;5113975;28;20203;-72
2023/12/26 08:42:24;;;;;;;5.77;2.10;;;10.20;99.90;;;;;;5114090;28;20652;-73
2023/12/26 08:44:50;;;;;;;9.80;2.20;;;10.30;99.90;;;;;;5114074;28;20179;-73
2023/12/26 08:47:16;;;;;;;5.17;1.93;;;10.30;99.90;;;;;;5113261;28;20224;-72
2023/12/26 08:49:41;;;;;;;6.63;2.07;;;10.40;99.90;;;;;;5094901;28;20581;-72
2023/12/26 08:52:08;;;;;;;6.07;2.00;;;10.40;99.90;;;;;;5113779;28;20171;-72
2023/12/26 08:54:34;;;;;;;7.53;2.10;;;10.50;99.90;;;;;;5113540;28;20607;-71
2023/12/26 08:56:59;;;;;;;8.03;1.77;;;10.50;99.90;;;;;;5113452;28;20233;-71
2023/12/26 08:59:25;;;;;;;10.60;2.20;;;10.60;99.90;;;;;;5113908;28;20195;-72
2023/12/26 09:01:51;;;;;;;4.80;2.30;;;10.80;99.90;;;;;;5113676;28;20168;-72
2023/12/26 09:04:17;;;;;;;9.17;2.10;;;10.80;99.90;;;;;;5114025;28;20163;-73
2023/12/26 09:06:42;;;;;;;10.50;2.30;;;10.90;99.90;;;;;;5113776;28;20202;-72
2023/12/26 09:09:08;;;;;;;14.50;2.70;;;10.90;99.90;;;;;;5094246;28;20175;-72
2023/12/26 09:11:34;;;;;;;12.00;2.43;;;10.90;99.90;;;;;;5094722;28;20321;-73
2023/12/26 09:14:01;;;;;;;9.27;2.47;;;11.00;99.90;;;;;;5112543;28;20218;-71
2023/12/26 09:16:26;;;;;;;11.90;2.27;;;11.00;99.90;;;;;;5113217;28;20167;-71
2023/12/26 09:18:52;;;;;;;11.93;2.50;;;11.00;99.90;;;;;;5112704;28;20210;-72
2023/12/26 09:21:17;;;;;;;8.40;2.00;;;11.20;99.90;;;;;;5094906;28;20492;-72
2023/12/26 09:23:43;;;;;;;8.13;2.27;;;11.20;99.90;;;;;;5113499;28;20211;-73
2023/12/26 09:26:09;;;;;;;10.57;2.40;;;11.10;99.90;;;;;;5113456;28;20198;-71
2023/12/26 09:28:34;;;;;;;10.37;2.40;;;11.10;99.90;;;;;;5113381;28;20293;-72
2023/12/26 09:31:00;;;;;;;9.67;2.60;;;11.10;99.90;;;;;;5112228;28;20171;-73
2023/12/26 09:33:26;;;;;;;10.60;2.53;;;11.10;99.90;;;;;;5112407;28;20179;-72
2023/12/26 09:35:51;;;;;;;10.47;2.27;;;11.20;99.90;;;;;;5113214;28;20171;-72
2023/12/26 09:38:17;;;;;;;9.00;2.63;;;11.50;99.90;;;;;;5113005;28;20222;-73
2023/12/26 09:40:42;;;;;;;16.40;2.67;;;11.70;99.90;;;;;;5113338;28;20171;-72
2023/12/26 09:43:08;;;;;;;9.70;2.20;;;11.80;99.90;;;;;;5112747;28;20502;-73
2023/12/26 09:45:34;;;;;;;8.53;2.33;;;12.00;99.90;;;;;;5112646;28;20566;-73
2023/12/26 09:48:00;;;;;;;7.83;2.30;;;12.40;99.90;;;;;;5112696;28;20634;-72
2023/12/26 09:50:26;;;;;;;8.07;2.50;;;12.70;99.90;;;;;;5112798;28;20175;-73
2023/12/26 09:52:53;;;;;;;10.43;3.10;;;12.60;99.90;;;;;;5094850;28;20182;-73
2023/12/26 09:55:20;;;;;;;10.20;2.57;;;12.50;99.90;;;;;;5112964;28;20164;-73
2023/12/26 09:57:46;;;;;;;10.87;3.27;;;12.60;99.90;;;;;;5112626;28;20175;-72
2023/12/26 10:00:12;;;;;;;11.10;2.47;;;12.50;99.90;;;;;;5112610;28;20175;-72
2023/12/26 10:02:38;;;;;;;9.03;2.73;;;12.50;99.90;;;;;;5113014;28;20194;-72
2023/12/26 10:05:04;;;;;;;5.60;2.23;;;12.50;99.90;;;;;;5112432;28;20646;-72
2023/12/26 10:07:30;;;;;;;10.23;2.43;;;12.30;99.90;;;;;;5112408;28;20649;-72
2023/12/26 10:09:56;;;;;;;8.67;2.37;;;12.20;99.90;;;;;;5094194;28;20175;-72
2023/12/26 10:12:34;;;;;;;10.97;2.97;;;12.20;99.90;;;;;;5112995;28;20195;-73
2023/12/26 10:15:03;;;;;;;7.47;2.50;;;12.20;99.90;;;;;;5112546;28;20182;-71
2023/12/26 10:17:30;;;;;;;9.27;2.50;;;12.20;99.90;;;;;;5112892;28;20171;-73
2023/12/26 10:19:57;;;;;;;7.10;2.53;;;11.90;99.90;;;;;;5112600;28;20215;-72
2023/12/26 10:22:26;;;;;;;8.87;2.43;;;11.80;99.90;;;;;;5113030;28;20634;-73
2023/12/26 10:24:55;;;;;;;10.63;2.70;;;11.60;99.90;;;;;;5115392;28;20623;-73
2023/12/26 10:27:22;;;;;;;10.10;2.57;;;11.60;99.90;;;;;;5115913;28;20166;-73
2023/12/26 10:29:51;;;;;;;11.83;2.57;;;11.50;99.90;;;;;;5116706;28;20269;-73
2023/12/26 10:32:17;;;;;;;8.23;2.50;;;11.50;99.90;;;;;;5116285;28;20535;-72
2023/12/26 10:34:43;;;;;;;8.13;2.20;;;11.30;99.90;;;;;;5115797;28;20618;-73
2023/12/26 10:37:10;;;;;;;6.77;2.43;;;11.30;99.90;;;;;;5116998;28;20179;-73
2023/12/26 10:39:36;;;;;;;6.80;2.27;;;11.30;99.90;;;;;;5116521;28;20214;-72
2023/12/26 10:42:03;;;;;;;7.57;2.07;;;11.30;99.90;;;;;;5116279;28;20167;-74
2023/12/26 10:45:04;;;;;;;9.10;2.07;;;11.30;99.90;;;;;;5116550;28;20174;-72
2023/12/26 10:47:31;;;;;;;7.73;2.37;;;11.30;99.90;;;;;;5116593;28;20178;-73
2023/12/26 10:49:59;;;;;;;10.83;2.30;;;11.20;99.90;;;;;;5116239;28;20190;-72
2023/12/26 10:52:26;;;;;;;8.17;1.77;;;11.20;99.90;;;;;;5115757;28;20309;-74
2023/12/26 10:54:58;;;;;;;9.73;2.80;;;11.00;99.90;;;;;;5115770;28;20171;-72
2023/12/26 10:57:24;;;;;;;12.57;3.00;;;11.00;99.90;;;;;;5115578;28;20638;-73
2023/12/26 13:52:07;;;;;;;16.23;3.17;;;11.00;99.90;;;;;;5112950;28;20197;-74
2023/12/26 13:55:10;;;;;;;11.53;2.73;;;11.00;99.90;;;;;;5112662;28;20175;-74
2023/12/26 13:58:14;;;;;;;11.67;3.67;;;11.10;99.90;;;;;;5093959;28;20174;-75
2023/12/26 14:01:18;;;;;;;12.37;3.20;;;11.10;99.90;;;;;;5098371;28;20193;-75
2023/12/26 14:04:20;;;;;;;12.00;2.90;;;11.20;99.90;;;;;;5116947;28;20522;-74
2023/12/26 14:07:23;;;;;;;9.83;2.60;;;11.20;99.90;;;;;;5098128;28;20644;-73
2023/12/26 14:10:26;;;;;;;10.50;2.80;;;11.10;99.90;;;;;;5116732;28;20159;-73
2023/12/26 14:13:29;;;;;;;10.97;3.10;;;11.00;99.90;;;;;;5117402;28;20189;-74
2023/12/26 14:16:32;;;;;;;10.83;3.23;;;11.10;99.90;;;;;;5116873;28;20179;-74
2023/12/26 14:19:35;;;;;;;10.53;2.93;;;11.20;99.90;;;;;;5116282;28;20554;-74
2023/12/26 14:22:38;;;;;;;11.77;2.93;;;11.20;99.90;;;;;;5097923;28;20297;-73
2023/12/26 14:25:41;;;;;;;9.97;2.83;;;11.10;99.90;;;;;;5116629;28;20186;-73
2023/12/26 14:28:44;;;;;;;12.03;3.07;;;11.00;99.90;;;;;;5115684;28;20214;-73
2023/12/26 14:31:47;;;;;;;9.37;2.50;;;11.00;99.90;;;;;;5116443;28;20235;-73
2023/12/26 14:34:50;;;;;;;10.73;3.13;;;10.80;99.90;;;;;;5114990;28;20660;-74
2023/12/26 14:37:53;;;;;;;30.07;21.87;;;10.80;99.90;;;;;;5116518;28;20279;-74
2023/12/26 14:40:56;;;;;;;12.40;3.30;;;10.70;99.90;;;;;;5097793;28;20546;-74
2023/12/26 14:43:59;;;;;;;15.57;3.23;;;10.70;99.90;;;;;;5116306;28;20634;-74
2023/12/26 14:47:02;;;;;;;13.23;2.80;;;10.70;99.90;;;;;;5116323;28;20167;-74
2023/12/26 14:50:05;;;;;;;10.83;3.33;;;10.60;99.90;;;;;;5115129;28;20163;-74
2023/12/26 14:53:08;;;;;;;11.60;3.30;;;10.50;99.90;;;;;;5115920;28;20206;-72
2023/12/26 14:56:12;;;;;;;15.80;3.53;;;10.40;99.90;;;;;;5116045;28;20167;-73
2023/12/26 14:59:15;;;;;;;13.90;4.23;;;10.50;99.90;;;;;;5097886;28;20206;-73
2023/12/26 15:01:53;;;;;;;11.77;3.43;;;10.50;99.90;;;;;;5115278;28;20163;-74
2023/12/26 15:04:19;;;;;;;12.00;3.43;;;10.40;99.90;;;;;;5115110;28;20331;-75
2023/12/26 15:06:44;;;;;;;11.97;3.40;;;10.50;99.90;;;;;;5115475;28;20203;-74
2023/12/26 15:09:12;;;;;;;14.20;3.77;;;10.50;99.90;;;;;;5115252;28;20511;-73
2023/12/26 15:11:38;;;;;;;15.87;3.63;;;10.50;99.90;;;;;;5113596;28;20186;-74
2023/12/26 15:14:04;;;;;;;17.30;3.83;;;10.30;99.90;;;;;;5097381;28;20176;-74
2023/12/26 15:16:29;;;;;;;11.23;3.43;;;10.30;99.90;;;;;;5115792;28;20645;-74
2023/12/26 15:18:55;;;;;;;13.43;3.40;;;10.20;99.90;;;;;;5114235;28;20311;-74
2023/12/26 15:21:21;;;;;;;14.60;3.43;;;10.20;99.90;;;;;;5114908;28;20186;-74
2023/12/26 15:23:49;;;;;;;14.10;3.53;;;10.20;99.90;;;;;;5115203;28;20171;-74
2023/12/26 15:26:15;;;;;;;12.97;3.47;;;10.10;99.90;;;;;;5115525;28;20231;-74
2023/12/26 15:28:44;;;;;;;14.60;3.50;;;10.10;99.90;;;;;;5114717;28;20218;-74
2023/12/26 15:31:20;;;;;;;10.10;3.33;;;10.00;99.90;;;;;;5115569;28;20174;-74
2023/12/26 15:33:49;;;;;;;12.47;3.60;;;10.00;99.90;;;;;;5097028;28;20193;-73
2023/12/26 15:36:25;;;;;;;9.50;3.07;;;10.00;99.90;;;;;;5115049;28;20179;-74
2023/12/26 15:38:51;;;;;;;11.10;3.03;;;9.90;99.90;;;;;;5114246;28;20199;-73
2023/12/26 15:41:18;;;;;;;13.27;3.60;;;9.80;99.90;;;;;;5114569;28;20195;-75
2023/12/26 15:43:44;;;;;;;13.73;3.37;;;9.80;99.90;;;;;;5114757;28;20175;-73
2023/12/26 15:46:23;;;;;;;10.80;3.60;;;9.70;99.90;;;;;;5115164;28;20229;-74